Time;durP1;ratioP1;P1;durP2;ratioP2;P2;SDS_P1;SDS_P2;PMS_P1;PMS_P2;Temp;Humidity;BMP_temperature;BMP_pressure;BME280_temperature;BME280_humidity;BME280_pressure;Samples;Min_cycle;Max_cycle;Signal;HPM_P1;HPM_P2
2023/12/23 00:00:18;;;;;;;1.75;0.30;;;8.30;99.90;;;;;;5059928;28;20021;-73
2023/12/23 00:02:43;;;;;;;3.40;0.63;;;8.30;99.90;;;;;;5059036;28;20098;-72
2023/12/23 00:05:09;;;;;;;0.20;0.20;;;8.30;99.90;;;;;;5058062;28;20017;-72
2023/12/23 00:07:35;;;;;;;1.73;0.45;;;8.20;99.90;;;;;;5057983;28;20025;-73
2023/12/23 00:10:04;;;;;;;2.17;0.20;;;8.20;99.90;;;;;;5058507;28;20032;-73
2023/12/23 00:12:30;;;;;;;0.95;0.20;;;8.20;99.90;;;;;;5058015;28;20052;-73
2023/12/23 00:14:56;;;;;;;1.65;0.30;;;8.20;99.90;;;;;;5057941;28;20021;-72
2023/12/23 00:17:21;;;;;;;1.15;0.32;;;8.20;99.90;;;;;;5058567;28;20087;-73
2023/12/23 00:19:47;;;;;;;0.98;0.52;;;8.30;99.90;;;;;;5057795;28;20088;-73
2023/12/23 00:22:13;;;;;;;0.73;0.20;;;8.30;99.90;;;;;;5059220;28;20135;-73
2023/12/23 00:24:38;;;;;;;0.63;0.57;;;8.30;99.90;;;;;;5058862;28;20029;-72
2023/12/23 00:27:04;;;;;;;0.98;0.35;;;8.30;99.90;;;;;;5057857;28;20029;-73
2023/12/23 00:29:30;;;;;;;1.05;0.50;;;8.30;99.90;;;;;;5057503;28;20025;-73
2023/12/23 00:31:56;;;;;;;2.80;0.60;;;8.30;99.90;;;;;;5043470;28;20026;-73
2023/12/23 00:34:21;;;;;;;1.17;0.30;;;8.20;99.90;;;;;;5038838;28;20017;-73
2023/12/23 00:36:47;;;;;;;1.33;0.32;;;8.40;99.90;;;;;;5037767;28;20025;-73
2023/12/23 00:39:12;;;;;;;2.00;0.50;;;8.50;99.90;;;;;;5038266;28;20049;-73
2023/12/23 00:41:38;;;;;;;3.13;0.38;;;8.50;99.90;;;;;;5037532;28;20071;-73
2023/12/23 00:44:04;;;;;;;3.03;0.70;;;8.60;99.90;;;;;;5038578;28;20021;-73
2023/12/23 00:46:37;;;;;;;2.20;0.68;;;8.60;99.90;;;;;;5037443;28;20029;-73
2023/12/23 00:49:03;;;;;;;2.33;0.82;;;8.50;99.90;;;;;;5037338;28;20034;-73
2023/12/23 00:51:29;;;;;;;0.65;0.40;;;8.60;99.90;;;;;;5038247;28;20025;-74
2023/12/23 00:53:54;;;;;;;3.10;0.60;;;8.50;99.90;;;;;;5038148;28;20037;-73
2023/12/23 00:56:21;;;;;;;1.70;0.52;;;8.50;99.90;;;;;;5037807;28;20030;-74
2023/12/23 00:58:47;;;;;;;3.65;0.75;;;8.60;99.90;;;;;;5037454;28;20030;-73
2023/12/23 01:01:13;;;;;;;3.80;1.05;;;8.60;99.90;;;;;;5038215;28;20100;-74
2023/12/23 01:03:38;;;;;;;1.63;0.43;;;8.50;99.90;;;;;;5037067;28;20041;-74
2023/12/23 01:06:04;;;;;;;2.17;0.38;;;8.50;99.90;;;;;;5038071;28;20032;-74
2023/12/23 01:08:30;;;;;;;0.60;0.40;;;8.60;99.90;;;;;;5036808;28;20032;-72
2023/12/23 01:10:56;;;;;;;4.03;0.60;;;8.70;99.90;;;;;;5038075;28;20029;-74
2023/12/23 01:13:22;;;;;;;1.42;1.23;;;8.60;99.90;;;;;;5039416;28;20098;-74
2023/12/23 01:15:47;;;;;;;0.90;0.43;;;8.60;99.90;;;;;;5038503;28;20092;-74
2023/12/23 01:18:13;;;;;;;3.20;0.60;;;8.50;99.90;;;;;;5038398;28;20025;-67
2023/12/23 01:20:40;;;;;;;7.50;0.60;;;8.60;99.90;;;;;;5036606;28;20017;-67
2023/12/23 01:23:06;;;;;;;3.13;0.85;;;8.60;99.90;;;;;;5037375;28;20101;-67
2023/12/23 01:25:31;;;;;;;2.33;0.77;;;8.50;99.90;;;;;;5036626;28;20076;-67
2023/12/23 01:28:00;;;;;;;5.40;0.70;;;8.60;99.90;;;;;;5036547;28;20116;-67
2023/12/23 01:30:25;;;;;;;1.55;0.50;;;8.70;99.90;;;;;;5036498;28;20025;-68
2023/12/23 01:32:52;;;;;;;4.05;0.77;;;8.70;99.90;;;;;;5036438;28;20033;-68
2023/12/23 01:35:17;;;;;;;3.60;0.40;;;8.60;99.90;;;;;;5037389;28;20030;-67
2023/12/23 01:37:43;;;;;;;3.38;0.80;;;8.60;99.90;;;;;;5037193;28;20121;-67
2023/12/23 01:40:09;;;;;;;3.05;0.60;;;8.60;99.90;;;;;;5036668;28;20021;-67
2023/12/23 01:42:36;;;;;;;3.58;0.60;;;8.60;99.90;;;;;;5037316;28;20025;-67
2023/12/23 01:45:03;;;;;;;5.78;0.80;;;8.50;99.90;;;;;;5036333;28;20022;-67
2023/12/23 01:47:29;;;;;;;1.95;0.45;;;8.60;99.90;;;;;;5037163;28;20032;-67
2023/12/23 01:49:56;;;;;;;2.95;0.60;;;8.60;99.90;;;;;;5036518;28;20021;-67
2023/12/23 01:52:23;;;;;;;1.35;0.80;;;8.50;99.90;;;;;;5037404;28;20045;-67
2023/12/23 01:54:49;;;;;;;2.90;0.55;;;8.60;99.90;;;;;;5037435;28;20029;-67
2023/12/23 01:57:14;;;;;;;1.02;0.50;;;8.60;99.90;;;;;;5037416;28;20039;-68
2023/12/23 01:59:40;;;;;;;8.95;0.70;;;8.60;99.90;;;;;;5036012;28;20038;-67
2023/12/23 02:02:06;;;;;;;3.42;1.25;;;8.60;99.90;;;;;;5037021;28;20022;-67
2023/12/23 02:04:32;;;;;;;4.05;0.80;;;8.50;99.90;;;;;;5037045;28;20025;-67
2023/12/23 02:06:58;;;;;;;6.60;0.60;;;8.60;99.90;;;;;;5036133;28;20125;-67
2023/12/23 02:09:23;;;;;;;4.47;0.50;;;8.60;99.90;;;;;;5036905;28;20116;-67
2023/12/23 02:12:18;;;;;;;1.55;0.82;;;8.50;99.90;;;;;;5036274;28;20025;-67
2023/12/23 02:15:04;;;;;;;0.90;0.40;;;8.60;99.90;;;;;;5036049;28;20075;-67
2023/12/23 02:17:30;;;;;;;1.08;0.50;;;8.70;99.90;;;;;;5035879;28;20061;-68
2023/12/23 02:19:55;;;;;;;7.47;0.93;;;8.60;99.90;;;;;;5035977;28;20021;-68
2023/12/23 02:22:21;;;;;;;3.90;0.90;;;8.60;99.90;;;;;;5035890;28;20056;-67
2023/12/23 02:24:46;;;;;;;4.22;0.90;;;8.60;99.90;;;;;;5036277;28;20049;-67
2023/12/23 02:27:18;;;;;;;5.57;0.82;;;8.50;99.90;;;;;;5035883;28;20099;-67
2023/12/23 02:29:46;;;;;;;1.88;0.60;;;8.50;99.90;;;;;;5035901;28;20022;-67
2023/12/23 02:32:13;;;;;;;1.63;0.60;;;8.60;99.90;;;;;;5036547;28;20119;-67
2023/12/23 02:34:41;;;;;;;4.68;0.77;;;8.50;99.90;;;;;;5039089;28;20022;-68
2023/12/23 02:37:06;;;;;;;1.45;0.50;;;8.50;99.90;;;;;;5039997;28;20025;-74
2023/12/23 02:39:32;;;;;;;1.25;0.60;;;8.50;99.90;;;;;;5040589;28;20022;-74
2023/12/23 02:41:58;;;;;;;3.25;0.68;;;8.60;99.90;;;;;;5039709;28;20021;-74
2023/12/23 02:44:23;;;;;;;1.90;0.70;;;8.60;99.90;;;;;;5040736;28;20018;-74
2023/12/23 02:46:49;;;;;;;1.85;0.70;;;8.50;99.90;;;;;;5040480;28;20021;-74
2023/12/23 02:49:14;;;;;;;0.50;0.50;;;8.60;99.90;;;;;;5039504;28;20021;-74
2023/12/23 02:51:39;;;;;;;0.90;0.50;;;8.60;99.90;;;;;;5039629;28;20079;-74
2023/12/23 02:54:05;;;;;;;1.52;1.42;;;8.60;99.90;;;;;;5039435;28;20029;-74
2023/12/23 02:56:31;;;;;;;1.92;0.75;;;8.70;99.90;;;;;;5039508;28;20052;-74
2023/12/23 02:58:57;;;;;;;1.92;0.50;;;8.70;99.90;;;;;;5039461;28;20033;-74
2023/12/23 03:01:22;;;;;;;1.63;0.70;;;8.70;99.90;;;;;;5039620;28;20022;-74
2023/12/23 03:03:48;;;;;;;2.97;0.73;;;8.60;99.90;;;;;;5040220;28;20021;-74
2023/12/23 03:06:14;;;;;;;0.30;0.30;;;8.50;99.90;;;;;;5040144;28;20043;-74
2023/12/23 03:08:40;;;;;;;3.00;0.40;;;8.40;99.90;;;;;;5040047;28;20025;-74
2023/12/23 03:11:05;;;;;;;4.03;0.80;;;8.30;99.90;;;;;;5040159;28;20032;-74
2023/12/23 03:13:31;;;;;;;4.20;0.63;;;8.30;99.90;;;;;;5039985;28;20029;-74
2023/12/23 03:15:56;;;;;;;0.82;0.28;;;8.20;99.90;;;;;;5039147;28;20072;-74
2023/12/23 03:18:22;;;;;;;4.70;0.50;;;8.20;99.90;;;;;;5039419;28;20021;-74
2023/12/23 03:20:48;;;;;;;1.45;0.57;;;8.20;99.90;;;;;;5040119;28;20022;-74
2023/12/23 03:23:14;;;;;;;0.47;0.25;;;8.20;99.90;;;;;;5040468;28;20041;-74
2023/12/23 03:25:39;;;;;;;0.82;0.47;;;8.20;99.90;;;;;;5039770;28;20029;-74
2023/12/23 03:28:05;;;;;;;0.38;0.30;;;8.30;99.90;;;;;;5039121;28;20026;-74
2023/12/23 03:30:30;;;;;;;2.97;0.75;;;8.30;99.90;;;;;;5039823;28;20025;-74
2023/12/23 03:32:56;;;;;;;4.18;0.50;;;8.10;99.90;;;;;;5039098;28;20037;-74
2023/12/23 03:35:21;;;;;;;3.10;0.55;;;8.10;99.90;;;;;;5041407;28;20025;-74
2023/12/23 03:37:47;;;;;;;0.50;0.30;;;8.10;99.90;;;;;;5041399;28;20041;-67
2023/12/23 03:40:12;;;;;;;2.88;0.47;;;8.10;99.90;;;;;;5039100;28;20018;-67
2023/12/23 03:42:41;;;;;;;0.55;0.30;;;8.00;99.90;;;;;;5039488;28;20132;-67
2023/12/23 03:45:07;;;;;;;1.30;0.40;;;8.00;99.90;;;;;;5039308;28;20049;-67
2023/12/23 03:47:34;;;;;;;5.00;0.68;;;8.00;99.90;;;;;;5039359;28;20055;-67
2023/12/23 03:50:00;;;;;;;1.25;0.50;;;8.00;99.90;;;;;;5039226;28;20026;-68
2023/12/23 03:52:25;;;;;;;0.98;0.40;;;8.00;99.90;;;;;;5039622;28;20030;-74
2023/12/23 03:54:51;;;;;;;2.55;0.30;;;8.10;99.90;;;;;;5040663;28;20033;-67
2023/12/23 03:57:16;;;;;;;2.20;0.65;;;8.00;99.90;;;;;;5039316;28;20053;-67
2023/12/23 03:59:42;;;;;;;3.72;0.30;;;8.00;99.90;;;;;;5039723;28;20026;-67
2023/12/23 04:02:08;;;;;;;1.27;0.40;;;7.80;99.90;;;;;;5039102;28;20022;-67
2023/12/23 04:04:37;;;;;;;0.73;0.70;;;7.70;99.90;;;;;;5038350;28;20026;-67
2023/12/23 04:07:03;;;;;;;1.73;0.30;;;7.80;99.90;;;;;;5038966;28;20024;-67
2023/12/23 04:09:28;;;;;;;2.00;0.30;;;7.80;99.90;;;;;;5037871;28;20025;-67
2023/12/23 04:11:55;;;;;;;2.72;0.57;;;7.80;99.90;;;;;;5039159;28;20108;-67
2023/12/23 04:14:21;;;;;;;1.05;0.47;;;7.80;99.90;;;;;;5038062;28;20220;-67
2023/12/23 04:16:47;;;;;;;3.85;0.60;;;7.80;99.90;;;;;;5038036;28;20033;-74
2023/12/23 04:19:12;;;;;;;1.60;0.40;;;7.70;99.90;;;;;;5038957;28;20096;-67
2023/12/23 04:21:38;;;;;;;1.15;0.50;;;7.80;99.90;;;;;;5038791;28;20032;-67
2023/12/23 04:24:04;;;;;;;2.35;0.30;;;7.80;99.90;;;;;;5037843;28;20017;-67
2023/12/23 04:26:31;;;;;;;0.60;0.45;;;7.90;99.90;;;;;;5038113;28;20029;-68
2023/12/23 04:28:56;;;;;;;2.88;0.40;;;7.90;99.90;;;;;;5037810;28;20026;-67
2023/12/23 04:31:22;;;;;;;5.25;1.13;;;7.90;99.90;;;;;;5041686;28;20120;-67
2023/12/23 04:33:48;;;;;;;2.42;1.02;;;7.80;99.90;;;;;;5038449;28;20021;-67
2023/12/23 04:36:14;;;;;;;3.40;0.70;;;7.70;99.90;;;;;;5037402;28;20032;-68
2023/12/23 04:38:39;;;;;;;5.72;0.80;;;7.80;99.90;;;;;;5038400;28;20029;-68
2023/12/23 04:41:06;;;;;;;2.40;0.85;;;7.80;99.90;;;;;;5037728;28;20018;-68
2023/12/23 04:43:31;;;;;;;2.83;0.90;;;7.80;99.90;;;;;;5038323;28;20029;-67
2023/12/23 04:45:57;;;;;;;3.90;0.70;;;7.70;99.90;;;;;;5037555;28;20021;-72
2023/12/23 04:48:24;;;;;;;1.10;0.50;;;7.70;99.90;;;;;;5038635;28;20071;-72
2023/12/23 04:50:50;;;;;;;3.55;0.90;;;7.90;99.90;;;;;;5038548;28;20144;-72
2023/12/23 04:53:16;;;;;;;1.95;0.90;;;7.90;99.90;;;;;;5038165;28;20025;-72
2023/12/23 04:55:43;;;;;;;2.75;0.80;;;8.00;99.90;;;;;;5037382;28;20025;-68
2023/12/23 04:58:08;;;;;;;2.15;0.85;;;8.00;99.90;;;;;;5037375;28;20053;-67
2023/12/23 05:00:34;;;;;;;1.15;0.70;;;8.00;99.90;;;;;;5037448;28;20033;-67
2023/12/23 05:02:59;;;;;;;4.53;0.93;;;8.00;99.90;;;;;;5037863;28;20059;-67
2023/12/23 05:05:25;;;;;;;3.83;0.95;;;8.00;99.90;;;;;;5037826;28;20108;-67
2023/12/23 05:07:50;;;;;;;6.30;1.42;;;7.90;99.90;;;;;;5036925;28;20022;-67
2023/12/23 05:10:16;;;;;;;3.97;0.90;;;7.90;99.90;;;;;;5037784;28;20028;-68
2023/12/23 05:12:41;;;;;;;5.13;2.30;;;7.90;99.90;;;;;;5036825;28;20033;-67
2023/12/23 05:15:07;;;;;;;3.97;0.90;;;7.90;99.90;;;;;;5037061;28;20049;-67
2023/12/23 05:17:33;;;;;;;3.33;1.30;;;7.90;99.90;;;;;;5036605;28;20093;-67
2023/12/23 05:19:58;;;;;;;1.42;0.85;;;7.90;99.90;;;;;;5037439;28;20026;-67
2023/12/23 05:22:24;;;;;;;2.97;1.30;;;7.90;99.90;;;;;;5036730;28;20028;-68
2023/12/23 05:24:49;;;;;;;4.60;1.23;;;8.00;99.90;;;;;;5036946;28;20022;-67
2023/12/23 05:27:15;;;;;;;1.95;1.30;;;8.00;99.90;;;;;;5037146;28;20072;-67
2023/12/23 05:29:42;;;;;;;3.15;1.30;;;8.00;99.90;;;;;;5037452;28;20021;-67
2023/12/23 05:32:07;;;;;;;7.03;1.33;;;7.90;99.90;;;;;;5036451;28;20034;-67
2023/12/23 05:34:33;;;;;;;4.68;1.10;;;7.90;99.90;;;;;;5037042;28;20029;-67
2023/12/23 05:36:58;;;;;;;5.80;1.30;;;7.90;99.90;;;;;;5036497;28;20036;-67
2023/12/23 05:39:24;;;;;;;4.75;1.30;;;7.90;99.90;;;;;;5036463;28;20025;-67
2023/12/23 05:41:49;;;;;;;6.40;1.13;;;7.90;99.90;;;;;;5037403;28;20021;-67
2023/12/23 05:44:15;;;;;;;1.15;0.82;;;7.90;99.90;;;;;;5037309;28;20025;-72
2023/12/23 05:46:42;;;;;;;4.05;1.48;;;7.90;99.90;;;;;;5036459;28;20040;-71
2023/12/23 05:49:07;;;;;;;2.72;0.95;;;8.00;99.90;;;;;;5036565;28;20025;-71
2023/12/23 05:51:34;;;;;;;6.00;1.20;;;8.00;99.90;;;;;;5036204;28;20029;-71
2023/12/23 05:53:59;;;;;;;4.53;1.25;;;8.00;99.90;;;;;;5037160;28;20022;-71
2023/12/23 05:56:25;;;;;;;5.25;1.30;;;8.00;99.90;;;;;;5036911;28;20116;-71
2023/12/23 05:58:50;;;;;;;2.50;0.90;;;7.90;99.90;;;;;;5036074;28;20044;-71
2023/12/23 06:01:17;;;;;;;2.25;0.90;;;8.00;99.90;;;;;;5037202;28;20032;-71
2023/12/23 06:03:42;;;;;;;2.75;1.00;;;8.00;99.90;;;;;;5036999;28;20084;-71
2023/12/23 06:06:09;;;;;;;5.78;0.90;;;8.00;99.90;;;;;;5036595;28;20025;-71
2023/12/23 06:08:34;;;;;;;1.63;0.80;;;8.00;99.90;;;;;;5036201;28;20026;-71
2023/12/23 06:11:00;;;;;;;3.10;1.10;;;8.00;99.90;;;;;;5037090;28;20025;-73
2023/12/23 06:13:25;;;;;;;6.95;1.15;;;8.00;99.90;;;;;;5036398;28;20029;-72
2023/12/23 06:15:51;;;;;;;4.25;1.20;;;8.10;99.90;;;;;;5036930;28;20046;-71
2023/12/23 06:18:16;;;;;;;2.08;0.65;;;8.10;99.90;;;;;;5036474;28;20116;-71
2023/12/23 06:20:42;;;;;;;1.27;0.60;;;8.10;99.90;;;;;;5036944;28;20044;-71
2023/12/23 06:23:07;;;;;;;3.88;0.80;;;8.00;99.90;;;;;;5037201;28;20128;-71
2023/12/23 06:25:33;;;;;;;2.22;0.80;;;8.00;99.90;;;;;;5036436;28;20021;-71
2023/12/23 06:27:59;;;;;;;1.25;0.75;;;8.00;99.90;;;;;;5036539;28;20033;-71
2023/12/23 06:30:24;;;;;;;1.63;0.47;;;8.00;99.90;;;;;;5036748;28;20331;-71
2023/12/23 06:32:50;;;;;;;1.25;0.80;;;8.00;99.90;;;;;;5048374;28;20036;-71
2023/12/23 06:35:15;;;;;;;1.92;0.80;;;8.00;99.90;;;;;;5055857;28;20032;-73
2023/12/23 06:37:41;;;;;;;2.63;0.73;;;8.00;99.90;;;;;;5056617;28;20040;-67
2023/12/23 06:40:07;;;;;;;3.17;0.70;;;8.00;99.90;;;;;;5055763;28;20032;-67
2023/12/23 06:42:33;;;;;;;0.80;0.40;;;8.00;99.90;;;;;;5055825;28;20025;-72
2023/12/23 06:44:58;;;;;;;2.05;0.93;;;8.10;99.90;;;;;;5056795;28;20036;-71
2023/12/23 06:47:24;;;;;;;0.60;0.60;;;8.10;99.90;;;;;;5056515;28;20028;-71
2023/12/23 06:49:50;;;;;;;0.98;0.63;;;8.00;99.90;;;;;;5056529;28;20025;-72
2023/12/23 06:52:15;;;;;;;1.77;0.68;;;8.10;99.90;;;;;;5055916;28;20025;-71
2023/12/23 06:54:41;;;;;;;3.85;0.50;;;8.10;99.90;;;;;;5056002;28;20021;-67
2023/12/23 06:57:06;;;;;;;2.50;0.60;;;8.10;99.90;;;;;;5056565;28;20025;-67
2023/12/23 06:59:32;;;;;;;3.35;0.70;;;8.10;99.90;;;;;;5055871;28;20036;-67
2023/12/23 07:01:57;;;;;;;4.00;0.70;;;8.10;99.90;;;;;;5056304;28;20029;-67
2023/12/23 07:04:23;;;;;;;0.63;0.57;;;8.20;99.90;;;;;;5055837;28;20066;-67
2023/12/23 07:06:48;;;;;;;0.75;0.40;;;8.20;99.90;;;;;;5056662;28;20025;-67
2023/12/23 07:09:14;;;;;;;2.08;0.47;;;8.20;99.90;;;;;;5056508;28;20025;-67
2023/12/23 07:11:39;;;;;;;1.50;0.32;;;8.30;99.90;;;;;;5056495;28;20048;-67
2023/12/23 07:14:05;;;;;;;1.27;0.50;;;8.30;99.90;;;;;;5055557;28;20021;-67
2023/12/23 07:16:30;;;;;;;0.82;0.52;;;8.30;99.90;;;;;;5057196;28;20079;-67
2023/12/23 07:18:56;;;;;;;1.92;0.70;;;8.30;99.90;;;;;;5055668;28;20032;-67
2023/12/23 07:21:21;;;;;;;1.58;0.80;;;8.30;99.90;;;;;;5057969;28;20029;-65
2023/12/23 07:23:47;;;;;;;0.95;0.70;;;8.40;99.90;;;;;;5059428;28;20013;-65
2023/12/23 07:26:14;;;;;;;1.92;0.80;;;8.40;99.90;;;;;;5059767;28;20028;-67
2023/12/23 07:28:40;;;;;;;8.10;1.58;;;8.40;99.90;;;;;;5058694;28;20056;-67
2023/12/23 07:31:06;;;;;;;1.10;0.50;;;8.50;99.90;;;;;;5058931;28;20078;-67
2023/12/23 07:33:31;;;;;;;1.85;0.70;;;8.50;99.90;;;;;;5058748;28;20028;-67
2023/12/23 07:35:57;;;;;;;3.05;0.82;;;8.50;99.90;;;;;;5059744;28;20026;-67
2023/12/23 07:38:23;;;;;;;3.53;0.90;;;8.50;99.90;;;;;;5059673;28;20037;-67
2023/12/23 07:40:49;;;;;;;4.20;0.68;;;8.50;99.90;;;;;;5059826;28;20020;-66
2023/12/23 07:43:14;;;;;;;4.03;0.55;;;8.50;99.90;;;;;;5059287;28;20083;-67
2023/12/23 07:45:40;;;;;;;1.38;0.75;;;8.50;99.90;;;;;;5058549;28;20070;-67
2023/12/23 07:48:06;;;;;;;1.02;0.60;;;8.50;99.90;;;;;;5058267;28;20025;-67
2023/12/23 07:50:32;;;;;;;2.17;0.50;;;8.50;99.90;;;;;;5058738;28;20133;-67
2023/12/23 07:52:57;;;;;;;0.65;0.60;;;8.50;99.90;;;;;;5058678;28;20112;-67
2023/12/23 07:55:24;;;;;;;1.73;1.23;;;8.50;99.90;;;;;;5058447;28;20024;-66
2023/12/23 07:57:50;;;;;;;2.35;1.23;;;8.50;99.90;;;;;;5060142;28;20029;-67
2023/12/23 08:00:16;;;;;;;2.83;1.25;;;8.60;99.90;;;;;;5059329;28;20032;-67
2023/12/23 08:02:43;;;;;;;1.75;0.60;;;8.60;99.90;;;;;;5058445;28;20107;-67
2023/12/23 08:05:08;;;;;;;1.08;0.60;;;8.60;99.90;;;;;;5059014;28;20025;-67
2023/12/23 08:07:34;;;;;;;1.48;0.60;;;8.60;99.90;;;;;;5057982;28;20027;-66
2023/12/23 08:09:59;;;;;;;4.05;0.65;;;8.60;99.90;;;;;;5058737;28;20029;-66
2023/12/23 08:12:25;;;;;;;0.65;0.43;;;8.60;99.90;;;;;;5057983;28;20059;-67
2023/12/23 08:14:50;;;;;;;1.80;0.52;;;8.60;99.90;;;;;;5058010;28;20036;-66
2023/12/23 08:17:16;;;;;;;1.65;0.63;;;8.60;99.90;;;;;;5059030;28;20029;-66
2023/12/23 08:19:41;;;;;;;2.53;0.70;;;8.60;99.90;;;;;;5057736;28;20029;-67
2023/12/23 08:22:07;;;;;;;0.93;0.50;;;8.60;99.90;;;;;;5057728;28;20021;-66
2023/12/23 08:24:33;;;;;;;3.10;0.50;;;8.60;99.90;;;;;;5057923;28;20027;-67
2023/12/23 08:27:00;;;;;;;2.00;0.50;;;8.60;99.90;;;;;;5058760;28;20029;-66
2023/12/23 08:29:25;;;;;;;1.60;0.55;;;8.60;99.90;;;;;;5058630;28;20024;-65
2023/12/23 08:31:51;;;;;;;2.05;0.50;;;8.60;99.90;;;;;;5055730;28;20028;-67
2023/12/23 08:34:17;;;;;;;1.08;0.40;;;8.60;99.90;;;;;;5038919;28;20029;-66
2023/12/23 08:36:43;;;;;;;1.55;0.50;;;8.60;99.90;;;;;;5037495;28;20026;-66
2023/12/23 08:39:08;;;;;;;0.75;0.30;;;8.70;99.90;;;;;;5037449;28;20133;-66
2023/12/23 08:41:35;;;;;;;1.20;0.20;;;8.70;99.90;;;;;;5037466;28;20087;-67
2023/12/23 08:44:02;;;;;;;1.65;0.68;;;8.80;99.90;;;;;;5038519;28;20017;-66
2023/12/23 08:46:43;;;;;;;7.78;0.85;;;8.70;99.90;;;;;;5038309;28;20060;-66
2023/12/23 08:49:08;;;;;;;1.00;0.60;;;8.80;99.90;;;;;;5038252;28;20021;-66
2023/12/23 08:51:36;;;;;;;5.15;0.95;;;8.80;99.90;;;;;;5038085;28;20029;-64
2023/12/23 08:54:02;;;;;;;1.38;0.75;;;8.80;99.90;;;;;;5037207;28;20032;-65
2023/12/23 08:56:27;;;;;;;0.30;0.30;;;8.80;99.90;;;;;;5038330;28;20120;-64
2023/12/23 08:58:53;;;;;;;1.05;0.50;;;8.80;99.90;;;;;;5037850;28;20033;-66
2023/12/23 09:01:18;;;;;;;4.38;0.88;;;8.80;99.90;;;;;;5037467;28;20025;-66
2023/12/23 09:03:44;;;;;;;3.03;1.10;;;8.80;99.90;;;;;;5037073;28;20031;-66
2023/12/23 09:06:12;;;;;;;3.85;0.70;;;8.80;99.90;;;;;;5038685;28;20025;-66
2023/12/23 09:08:38;;;;;;;2.40;1.35;;;8.80;99.90;;;;;;5037023;28;20022;-66
2023/12/23 09:11:04;;;;;;;1.60;1.00;;;8.90;99.90;;;;;;5037842;28;20021;-66
2023/12/23 09:13:30;;;;;;;1.58;1.13;;;8.90;99.90;;;;;;5036936;28;20048;-67
2023/12/23 09:15:55;;;;;;;4.45;1.15;;;8.90;99.90;;;;;;5038126;28;20025;-66
2023/12/23 09:18:21;;;;;;;0.73;0.63;;;8.90;99.90;;;;;;5037788;28;20117;-67
2023/12/23 09:20:46;;;;;;;0.47;0.40;;;8.90;99.90;;;;;;5037718;28;20028;-66
2023/12/23 09:23:12;;;;;;;0.82;0.40;;;8.90;99.90;;;;;;5036640;28;20025;-66
2023/12/23 09:25:37;;;;;;;2.70;0.40;;;8.90;99.90;;;;;;5037452;28;20022;-66
2023/12/23 09:28:03;;;;;;;3.72;0.50;;;8.90;99.90;;;;;;5036635;28;20026;-66
2023/12/23 09:30:29;;;;;;;2.53;0.50;;;8.90;99.90;;;;;;5037521;28;20029;-66
2023/12/23 09:32:54;;;;;;;0.60;0.40;;;9.00;99.90;;;;;;5037491;28;20026;-66
2023/12/23 09:35:20;;;;;;;0.75;0.68;;;9.00;99.90;;;;;;5036691;28;20026;-66
2023/12/23 09:37:45;;;;;;;0.50;0.50;;;9.00;99.90;;;;;;5037137;28;20031;-66
2023/12/23 09:40:13;;;;;;;0.88;0.40;;;9.00;99.90;;;;;;5036605;28;20022;-66
2023/12/23 09:42:39;;;;;;;1.25;0.50;;;9.00;99.90;;;;;;5036880;28;20025;-66
2023/12/23 09:45:05;;;;;;;0.55;0.30;;;9.00;99.90;;;;;;5037435;28;20100;-66
2023/12/23 09:47:31;;;;;;;0.65;0.60;;;9.00;99.90;;;;;;5037195;28;20100;-66
2023/12/23 09:49:57;;;;;;;1.95;0.50;;;9.10;99.90;;;;;;5037334;28;20053;-66
2023/12/23 09:52:23;;;;;;;0.98;0.55;;;9.10;99.90;;;;;;5036602;28;20037;-66
2023/12/23 09:54:51;;;;;;;3.40;0.80;;;9.10;99.90;;;;;;5036291;28;20025;-67
2023/12/23 09:57:18;;;;;;;2.20;0.70;;;9.10;99.90;;;;;;5036956;28;20021;-66
2023/12/23 09:59:43;;;;;;;2.35;0.55;;;9.10;99.90;;;;;;5036338;28;20025;-66
2023/12/23 10:02:09;;;;;;;1.17;0.80;;;9.10;99.90;;;;;;5036931;28;20074;-66
2023/12/23 10:04:34;;;;;;;3.55;0.93;;;9.10;99.90;;;;;;5036889;28;20113;-66
2023/12/23 10:07:01;;;;;;;0.47;0.38;;;9.10;99.90;;;;;;5036360;28;20112;-66
2023/12/23 10:09:30;;;;;;;1.38;0.88;;;9.10;99.90;;;;;;5036808;28;20028;-66
2023/12/23 10:11:55;;;;;;;1.17;0.68;;;9.10;99.90;;;;;;5037298;28;20057;-66
2023/12/23 10:14:22;;;;;;;0.70;0.47;;;9.10;99.90;;;;;;5036021;28;20025;-66
2023/12/23 10:16:48;;;;;;;4.25;0.52;;;9.10;99.90;;;;;;5036302;28;20022;-67
2023/12/23 10:19:13;;;;;;;1.35;0.82;;;9.10;99.90;;;;;;5036151;28;20018;-67
2023/12/23 10:21:41;;;;;;;2.42;0.95;;;9.10;99.90;;;;;;5036055;28;20026;-66
2023/12/23 10:24:07;;;;;;;3.08;0.90;;;9.10;99.90;;;;;;5035885;28;20026;-66
2023/12/23 10:26:34;;;;;;;0.75;0.60;;;9.10;99.90;;;;;;5036329;28;20029;-66
2023/12/23 10:29:03;;;;;;;6.32;1.02;;;9.20;99.90;;;;;;5036102;28;20033;-66
2023/12/23 10:31:31;;;;;;;6.30;1.65;;;9.20;99.90;;;;;;5036815;28;20068;-64
2023/12/23 10:34:04;;;;;;;4.45;1.23;;;9.20;99.90;;;;;;5035693;28;20033;-64
2023/12/23 10:36:31;;;;;;;2.70;0.93;;;9.20;99.90;;;;;;5035939;28;20030;-65
2023/12/23 10:39:06;;;;;;;3.38;1.45;;;9.20;99.90;;;;;;5036690;28;20164;-64
2023/12/23 10:41:55;;;;;;;4.05;1.77;;;9.20;99.90;;;;;;5035766;28;20025;-64
2023/12/23 10:44:22;;;;;;;4.53;2.05;;;9.20;99.90;;;;;;5036987;28;20025;-65
2023/12/23 10:46:50;;;;;;;6.28;2.47;;;9.30;99.90;;;;;;5036570;28;20036;-64
2023/12/23 10:49:17;;;;;;;3.65;1.10;;;9.30;99.90;;;;;;5035881;28;20030;-63
2023/12/23 10:51:43;;;;;;;6.50;1.33;;;9.30;99.90;;;;;;5036641;28;20040;-64
2023/12/23 10:54:10;;;;;;;7.43;2.05;;;9.40;99.90;;;;;;5036533;28;20021;-64
2023/12/23 10:56:36;;;;;;;2.17;1.25;;;9.40;99.90;;;;;;5039595;28;20048;-64
2023/12/23 10:59:03;;;;;;;7.20;2.08;;;9.40;99.90;;;;;;5057043;23;20050;-62
2023/12/23 11:01:32;;;;;;;6.85;1.80;;;9.40;99.90;;;;;;5040686;28;20056;-63
2023/12/23 11:04:00;;;;;;;2.65;1.17;;;9.40;99.90;;;;;;5040196;28;20021;-62
2023/12/23 11:06:27;;;;;;;6.30;1.67;;;9.40;99.90;;;;;;5039551;28;20029;-62
2023/12/23 11:08:53;;;;;;;5.80;1.40;;;9.40;99.90;;;;;;5039932;28;20026;-63
2023/12/23 11:11:19;;;;;;;4.68;1.45;;;9.40;99.90;;;;;;5040383;28;20025;-62
2023/12/23 11:13:45;;;;;;;5.55;2.28;;;9.40;99.90;;;;;;5040042;28;20049;-63
2023/12/23 11:16:12;;;;;;;7.93;1.83;;;9.40;99.90;;;;;;5039014;28;20021;-63
2023/12/23 11:18:39;;;;;;;7.28;1.85;;;9.40;99.90;;;;;;5039199;28;20028;-63
2023/12/23 11:21:16;;;;;;;2.47;0.98;;;9.40;99.90;;;;;;5040301;28;20022;-62
2023/12/23 11:23:41;;;;;;;3.95;1.40;;;9.40;99.90;;;;;;5040302;28;20026;-63
2023/12/23 11:26:40;;;;;;;3.38;1.10;;;9.50;99.90;;;;;;5039771;28;20033;-63
2023/12/23 11:29:14;;;;;;;1.27;0.75;;;9.50;99.90;;;;;;5038861;28;20021;-63
2023/12/23 11:31:41;;;;;;;1.83;0.52;;;9.40;99.90;;;;;;5039271;28;20013;-63
2023/12/23 11:34:14;;;;;;;6.30;1.65;;;9.40;99.90;;;;;;5038726;28;20032;-64
2023/12/23 11:36:42;;;;;;;3.15;0.85;;;9.50;99.90;;;;;;5039512;28;20033;-63
2023/12/23 11:39:11;;;;;;;4.53;1.40;;;9.50;99.90;;;;;;5039564;28;20017;-63
2023/12/23 11:41:39;;;;;;;2.70;1.08;;;9.50;99.90;;;;;;5039494;28;20041;-62
2023/12/23 11:44:06;;;;;;;1.15;0.70;;;9.50;99.90;;;;;;5039522;28;20029;-62
2023/12/23 11:46:33;;;;;;;2.75;1.42;;;9.50;99.90;;;;;;5038878;28;20026;-62
2023/12/23 11:49:00;;;;;;;7.55;1.55;;;9.50;99.90;;;;;;5038935;28;20025;-62
2023/12/23 11:51:26;;;;;;;0.65;0.65;;;9.50;99.90;;;;;;5038514;28;20041;-62
2023/12/23 11:53:53;;;;;;;2.05;1.02;;;9.50;99.90;;;;;;5039254;28;20029;-62
2023/12/23 11:56:19;;;;;;;2.10;1.27;;;9.60;99.90;;;;;;5039293;28;20027;-62
2023/12/23 11:58:45;;;;;;;5.25;1.15;;;9.60;99.90;;;;;;5039192;28;20029;-62
2023/12/23 12:01:11;;;;;;;2.55;1.02;;;9.70;99.90;;;;;;5038354;28;20029;-62
2023/12/23 12:03:36;;;;;;;3.92;1.35;;;9.60;99.90;;;;;;5039176;28;20026;-63
2023/12/23 12:06:02;;;;;;;2.58;1.38;;;9.70;99.90;;;;;;5037663;28;20021;-62
2023/12/23 12:08:28;;;;;;;0.82;0.43;;;9.70;99.90;;;;;;5038431;28;20026;-62
2023/12/23 12:10:56;;;;;;;2.92;0.60;;;9.70;99.90;;;;;;5038979;28;20022;-62
2023/12/23 12:13:26;;;;;;;2.60;0.70;;;9.60;99.90;;;;;;5038927;28;20021;-63
2023/12/23 12:15:52;;;;;;;5.38;0.60;;;9.60;99.90;;;;;;5038998;28;20021;-63
2023/12/23 12:18:18;;;;;;;2.75;0.57;;;9.60;99.90;;;;;;5037782;28;20029;-63
2023/12/23 12:20:44;;;;;;;1.30;0.63;;;9.60;99.90;;;;;;5038799;28;20044;-62
2023/12/23 12:23:12;;;;;;;3.53;0.57;;;9.60;99.90;;;;;;5037967;28;20021;-62
2023/12/23 12:25:38;;;;;;;1.58;0.73;;;9.60;99.90;;;;;;5038665;28;20024;-62
2023/12/23 12:28:05;;;;;;;1.85;0.90;;;9.60;99.90;;;;;;5038471;28;20021;-62
2023/12/23 12:30:31;;;;;;;1.20;0.77;;;9.60;99.90;;;;;;5038568;28;20018;-63
2023/12/23 12:32:58;;;;;;;2.83;1.10;;;9.60;99.90;;;;;;5038634;28;20037;-62
2023/12/23 12:35:24;;;;;;;3.03;1.10;;;9.60;99.90;;;;;;5038599;28;20024;-63
2023/12/23 12:37:49;;;;;;;3.35;0.80;;;9.60;99.90;;;;;;5038366;28;20029;-62
2023/12/23 12:40:16;;;;;;;4.07;0.75;;;9.60;99.90;;;;;;5038381;28;20060;-63
2023/12/23 12:42:46;;;;;;;1.52;0.35;;;9.60;99.90;;;;;;5038392;28;20034;-63
2023/12/23 12:45:12;;;;;;;1.38;0.60;;;9.60;99.90;;;;;;5038414;28;20033;-64
2023/12/23 12:47:38;;;;;;;3.67;0.73;;;9.70;99.90;;;;;;5037541;28;20068;-63
2023/12/23 12:50:05;;;;;;;2.97;0.60;;;9.70;99.90;;;;;;5038117;28;20091;-63
2023/12/23 12:52:32;;;;;;;5.10;1.27;;;9.70;99.90;;;;;;5038299;28;20080;-63